Time;durP1;ratioP1;P1;durP2;ratioP2;P2;SDS_P1;SDS_P2;PMS_P1;PMS_P2;Temp;Humidity;BMP_temperature;BMP_pressure;BME280_temperature;BME280_humidity;BME280_pressure;Samples;Min_cycle;Max_cycle;Signal;HPM_P1;HPM_P2
2023/10/21 00:00:03;;;;;;;13.80;13.40;;;14.30;1.00;;;;;;5089842;28;20456;-78
2023/10/21 00:02:32;;;;;;;13.90;13.50;;;14.30;1.00;;;;;;5088434;28;20666;-79
2023/10/21 00:05:00;;;;;;;13.77;13.33;;;14.30;1.00;;;;;;5084334;28;20489;-79
2023/10/21 00:07:29;;;;;;;13.10;12.80;;;14.20;74.60;;;;;;5089560;28;20973;-80
2023/10/21 00:09:58;;;;;;;13.70;13.40;;;14.20;99.90;;;;;;5085360;28;20494;-79
2023/10/21 00:12:27;;;;;;;13.40;13.10;;;14.20;99.90;;;;;;5090365;28;20450;-79
2023/10/21 00:14:55;;;;;;;13.20;12.90;;;14.30;99.90;;;;;;5085405;28;20477;-78
2023/10/21 00:17:24;;;;;;;13.20;12.90;;;14.30;99.90;;;;;;5087878;28;21287;-79
2023/10/21 00:19:52;;;;;;;13.07;12.77;;;14.20;99.90;;;;;;5088302;28;20449;-78
2023/10/21 00:22:20;;;;;;;13.00;12.70;;;14.30;99.90;;;;;;5086368;28;20482;-78
2023/10/21 00:24:50;;;;;;;13.10;12.80;;;14.20;99.90;;;;;;5088017;28;20476;-79
2023/10/21 00:27:18;;;;;;;12.93;12.70;;;14.30;99.90;;;;;;5092302;28;20955;-78
2023/10/21 00:29:46;;;;;;;13.10;12.80;;;14.30;99.90;;;;;;5088119;28;20527;-79
2023/10/21 00:32:16;;;;;;;13.60;13.20;;;14.30;99.90;;;;;;5083742;28;20515;-80
2023/10/21 00:34:44;;;;;;;13.10;12.80;;;14.30;1.00;;;;;;5086582;28;20596;-80
2023/10/21 00:37:12;;;;;;;13.40;13.10;;;14.30;1.00;;;;;;5088659;28;20482;-80
2023/10/21 00:39:40;;;;;;;12.90;12.60;;;14.30;99.90;;;;;;5089777;28;20458;-79
2023/10/21 00:42:10;;;;;;;12.87;12.63;;;14.30;1.00;;;;;;5092165;28;20489;-79
2023/10/21 00:44:38;;;;;;;13.17;12.87;;;14.30;1.00;;;;;;5092277;27;20477;-79
2023/10/21 00:47:06;;;;;;;12.70;12.50;;;14.20;99.90;;;;;;5094855;27;20511;-79
2023/10/21 00:49:35;;;;;;;13.20;12.90;;;14.20;1.00;;;;;;5086539;28;20867;-80
2023/10/21 00:52:05;;;;;;;13.50;13.10;;;14.20;1.00;;;;;;5087578;28;20491;-80
2023/10/21 00:54:33;;;;;;;14.10;13.70;;;14.20;1.00;;;;;;5083505;28;20474;-79
2023/10/21 00:57:01;;;;;;;13.60;13.20;;;14.10;1.00;;;;;;5089801;28;20532;-79
2023/10/21 00:59:31;;;;;;;13.47;13.17;;;14.20;1.00;;;;;;5088372;28;21139;-79
2023/10/21 01:01:59;;;;;;;13.60;13.20;;;14.10;1.00;;;;;;5088031;28;20526;-79
2023/10/21 01:04:27;;;;;;;13.37;12.87;;;14.10;99.90;;;;;;5089581;28;21148;-79
2023/10/21 01:06:56;;;;;;;13.10;12.80;;;14.10;1.00;;;;;;5088808;28;20454;-79
2023/10/21 01:09:26;;;;;;;13.10;12.80;;;14.10;42.00;;;;;;5083068;27;21418;-79
2023/10/21 01:11:54;;;;;;;12.90;12.60;;;14.10;91.30;;;;;;5087683;28;20450;-80
2023/10/21 01:14:22;;;;;;;13.20;12.90;;;14.10;99.90;;;;;;5090595;28;20465;-78
2023/10/21 01:16:52;;;;;;;13.27;12.97;;;14.10;1.00;;;;;;5085953;28;21132;-78
2023/10/21 01:19:20;;;;;;;13.20;12.90;;;14.10;1.00;;;;;;5089649;28;20460;-80
2023/10/21 01:21:48;;;;;;;13.30;13.00;;;14.10;1.00;;;;;;5088303;28;20454;-80
2023/10/21 01:24:18;;;;;;;13.00;12.70;;;14.20;1.00;;;;;;5088235;28;20473;-81
2023/10/21 01:26:46;;;;;;;13.27;12.90;;;14.20;1.00;;;;;;5094935;28;20449;-79
2023/10/21 01:29:14;;;;;;;12.90;12.60;;;14.20;1.00;;;;;;5092635;28;20541;-79
2023/10/21 01:31:43;;;;;;;12.70;12.50;;;14.20;99.90;;;;;;5090921;28;20468;-79
2023/10/21 01:34:12;;;;;;;12.60;12.40;;;14.20;99.90;;;;;;5092620;28;20478;-78
2023/10/21 01:36:41;;;;;;;13.10;12.80;;;14.20;99.90;;;;;;5087700;28;20453;-79
2023/10/21 01:39:10;;;;;;;13.10;12.80;;;14.20;99.90;;;;;;5087875;28;20454;-78
2023/10/21 01:41:40;;;;;;;12.90;12.60;;;14.20;45.90;;;;;;5091259;28;20461;-79
2023/10/21 01:44:08;;;;;;;13.30;13.00;;;14.20;99.90;;;;;;5093098;28;20499;-79
2023/10/21 01:46:37;;;;;;;13.03;12.83;;;14.20;99.90;;;;;;5090965;28;20461;-79
2023/10/21 01:49:05;;;;;;;13.50;13.20;;;14.20;37.20;;;;;;5084061;28;20461;-79
2023/10/21 01:51:33;;;;;;;13.50;13.20;;;14.20;1.00;;;;;;5088026;28;20461;-79
2023/10/21 01:54:02;;;;;;;13.70;13.40;;;14.30;1.00;;;;;;5086517;28;20477;-79
2023/10/21 01:56:30;;;;;;;13.80;13.50;;;14.30;1.00;;;;;;5091256;28;20441;-79
2023/10/21 01:59:00;;;;;;;13.50;13.20;;;14.30;1.00;;;;;;5090721;28;20459;-77
2023/10/21 02:01:28;;;;;;;13.47;13.17;;;14.30;1.00;;;;;;5089656;28;20457;-79
2023/10/21 02:03:57;;;;;;;13.50;13.20;;;14.30;1.00;;;;;;5089909;28;20557;-79
2023/10/21 02:06:25;;;;;;;13.70;13.40;;;14.30;1.00;;;;;;5084094;28;20533;-79
2023/10/21 02:08:55;;;;;;;13.40;13.10;;;14.40;99.90;;;;;;5083831;28;20451;-79
2023/10/21 02:11:24;;;;;;;13.27;13.03;;;14.40;1.00;;;;;;5090286;28;20458;-79
2023/10/21 02:13:52;;;;;;;13.30;13.00;;;14.30;1.00;;;;;;5089944;28;20473;-77
2023/10/21 02:16:22;;;;;;;13.23;12.93;;;14.40;1.00;;;;;;5089365;28;20514;-80
2023/10/21 02:18:50;;;;;;;13.70;13.40;;;14.30;1.00;;;;;;5089961;28;20450;-79
2023/10/21 02:21:18;;;;;;;13.60;13.30;;;14.30;1.00;;;;;;5093458;28;20489;-78
2023/10/21 02:23:46;;;;;;;13.37;13.07;;;14.40;99.90;;;;;;5092651;27;20576;-78
2023/10/21 02:26:15;;;;;;;13.20;12.90;;;14.40;1.00;;;;;;5092120;28;20880;-78
2023/10/21 02:28:43;;;;;;;13.77;13.47;;;14.40;1.00;;;;;;5094170;28;20454;-78
2023/10/21 02:31:12;;;;;;;13.60;13.30;;;14.40;1.00;;;;;;5086982;28;20462;-79
2023/10/21 02:33:41;;;;;;;13.37;13.07;;;14.30;99.90;;;;;;5090226;28;20474;-78
2023/10/21 02:36:09;;;;;;;13.83;13.53;;;14.40;99.90;;;;;;5091936;28;20450;-79
2023/10/21 02:38:37;;;;;;;13.50;13.20;;;14.40;1.00;;;;;;5094144;28;20454;-79
2023/10/21 02:41:06;;;;;;;13.40;13.10;;;14.40;99.90;;;;;;5094832;28;20453;-79
2023/10/21 02:43:34;;;;;;;13.90;13.60;;;14.40;99.90;;;;;;5091764;28;20481;-78
2023/10/21 02:46:08;;;;;;;13.67;13.37;;;14.40;99.90;;;;;;5092543;28;20434;-77
2023/10/21 02:48:36;;;;;;;13.60;13.30;;;14.40;99.90;;;;;;5087578;28;20841;-78
2023/10/21 02:51:13;;;;;;;13.53;13.20;;;14.40;99.90;;;;;;5086575;28;20464;-78
2023/10/21 02:53:42;;;;;;;13.60;13.30;;;14.40;99.90;;;;;;5090349;28;20470;-79
2023/10/21 02:56:13;;;;;;;13.40;13.10;;;14.40;99.90;;;;;;5092268;28;20454;-78
2023/10/21 02:58:41;;;;;;;13.63;13.30;;;14.30;99.90;;;;;;5095136;28;20534;-79
2023/10/21 03:01:15;;;;;;;13.20;12.90;;;14.30;1.00;;;;;;5092107;28;20666;-79
2023/10/21 03:03:44;;;;;;;13.40;13.10;;;14.40;99.90;;;;;;5091321;28;20580;-78
2023/10/21 03:06:16;;;;;;;13.33;12.97;;;14.40;99.90;;;;;;5089974;27;20450;-79
2023/10/21 03:08:45;;;;;;;13.40;13.10;;;14.40;99.90;;;;;;5089569;28;20449;-79
2023/10/21 03:11:14;;;;;;;13.40;13.10;;;14.40;99.90;;;;;;5092621;28;20992;-79
2023/10/21 03:13:42;;;;;;;13.20;12.90;;;14.40;99.90;;;;;;5087770;28;21083;-80
2023/10/21 03:16:13;;;;;;;13.20;12.80;;;14.30;99.90;;;;;;5088434;28;20468;-78
2023/10/21 03:18:42;;;;;;;13.20;12.90;;;14.40;99.90;;;;;;5089954;28;20462;-79
2023/10/21 03:21:10;;;;;;;13.23;12.93;;;14.40;99.90;;;;;;5088757;28;20454;-79
2023/10/21 03:23:40;;;;;;;13.00;12.70;;;14.40;99.90;;;;;;5089426;28;20595;-80
2023/10/21 03:26:08;;;;;;;13.40;13.00;;;14.40;99.90;;;;;;5089116;28;20450;-79
2023/10/21 03:28:38;;;;;;;13.77;13.07;;;14.40;99.90;;;;;;5090992;28;20549;-79
2023/10/21 03:31:06;;;;;;;13.30;13.00;;;14.40;99.90;;;;;;5095293;28;20463;-79
2023/10/21 03:33:35;;;;;;;13.30;13.00;;;14.40;99.90;;;;;;5089165;27;20561;-79
2023/10/21 03:36:05;;;;;;;13.40;13.10;;;14.40;99.90;;;;;;5087423;28;20537;-80
2023/10/21 03:38:34;;;;;;;13.40;13.10;;;14.40;99.90;;;;;;5090575;28;20450;-79
2023/10/21 03:41:06;;;;;;;13.03;12.83;;;14.40;99.90;;;;;;5090153;28;20457;-79
2023/10/21 03:43:35;;;;;;;13.50;13.20;;;14.40;99.90;;;;;;5092183;28;20473;-79
2023/10/21 03:46:05;;;;;;;13.40;13.10;;;14.50;99.90;;;;;;5087817;28;21253;-80
2023/10/21 03:48:33;;;;;;;13.40;13.00;;;14.40;99.90;;;;;;5092130;28;20465;-80
2023/10/21 03:51:06;;;;;;;13.40;13.10;;;14.40;99.90;;;;;;5092548;28;20457;-80
2023/10/21 03:53:34;;;;;;;13.30;13.00;;;14.50;99.90;;;;;;5083230;28;20462;-80
2023/10/21 03:56:04;;;;;;;13.20;12.90;;;14.50;99.90;;;;;;5089603;28;20825;-79
2023/10/21 03:58:32;;;;;;;13.33;13.03;;;14.50;99.90;;;;;;5093493;28;20522;-80
2023/10/21 04:01:01;;;;;;;13.07;12.77;;;14.40;99.90;;;;;;5087872;28;20463;-79
2023/10/21 04:03:29;;;;;;;12.90;12.70;;;14.40;99.90;;;;;;5083132;28;20486;-79
2023/10/21 04:05:58;;;;;;;13.30;12.93;;;14.40;99.90;;;;;;5090757;28;20504;-79
2023/10/21 04:08:27;;;;;;;13.40;13.10;;;14.40;99.90;;;;;;5092042;28;20466;-79
2023/10/21 04:10:55;;;;;;;13.70;13.40;;;14.40;99.90;;;;;;5093124;28;20458;-80
2023/10/21 04:13:25;;;;;;;13.70;13.30;;;14.40;99.90;;;;;;5091957;28;20472;-79
2023/10/21 04:15:54;;;;;;;13.80;13.50;;;14.40;99.90;;;;;;5092225;28;20452;-78
2023/10/21 04:18:22;;;;;;;13.77;13.30;;;14.40;99.90;;;;;;5085652;28;21467;-79
2023/10/21 04:20:51;;;;;;;14.13;13.73;;;14.40;99.90;;;;;;5086108;28;20545;-80
2023/10/21 04:23:20;;;;;;;13.50;13.20;;;14.40;99.90;;;;;;5091717;28;21338;-79
2023/10/21 04:25:48;;;;;;;13.97;13.47;;;14.50;99.90;;;;;;5089744;28;20445;-79
2023/10/21 04:28:17;;;;;;;13.80;13.50;;;14.40;99.90;;;;;;5096159;28;20453;-78
2023/10/21 04:30:47;;;;;;;13.80;13.50;;;14.40;99.90;;;;;;5090464;28;20461;-80
2023/10/21 04:33:15;;;;;;;14.00;13.60;;;14.40;99.90;;;;;;5087485;28;21099;-78
2023/10/21 04:35:43;;;;;;;13.80;13.50;;;14.40;99.90;;;;;;5092499;28;20480;-80
2023/10/21 04:38:11;;;;;;;13.93;13.47;;;14.40;99.90;;;;;;5084413;28;20450;-79
2023/10/21 04:40:39;;;;;;;13.40;13.10;;;14.50;99.90;;;;;;5089696;28;20472;-79
2023/10/21 04:43:08;;;;;;;13.70;13.40;;;14.40;99.90;;;;;;5090447;28;20452;-78
2023/10/21 04:45:36;;;;;;;13.80;13.50;;;14.40;99.90;;;;;;5091443;28;20474;-79
2023/10/21 04:48:07;;;;;;;13.40;13.13;;;14.40;99.90;;;;;;5091999;28;20484;-79
2023/10/21 04:50:35;;;;;;;13.50;13.20;;;14.40;99.90;;;;;;5092237;28;20452;-80
2023/10/21 04:53:03;;;;;;;13.80;13.40;;;14.50;1.00;;;;;;5089021;28;20446;-79
2023/10/21 04:55:31;;;;;;;13.70;13.30;;;14.50;1.00;;;;;;5084050;28;20454;-79
2023/10/21 04:57:59;;;;;;;13.87;13.57;;;14.50;99.90;;;;;;5087821;28;20545;-79
2023/10/21 05:00:28;;;;;;;13.90;13.50;;;14.60;99.90;;;;;;5088789;28;20820;-80
2023/10/21 05:02:57;;;;;;;13.60;13.30;;;14.50;1.00;;;;;;5090368;28;20446;-79
2023/10/21 05:05:27;;;;;;;13.53;13.20;;;14.50;1.00;;;;;;5086687;28;20561;-79
2023/10/21 05:07:55;;;;;;;13.60;13.30;;;14.50;1.00;;;;;;5086521;28;20457;-78
2023/10/21 05:10:23;;;;;;;13.43;13.13;;;14.50;1.00;;;;;;5092009;28;20511;-79
2023/10/21 05:12:51;;;;;;;13.80;13.50;;;14.50;1.00;;;;;;5083103;28;20454;-80
2023/10/21 05:15:19;;;;;;;13.60;13.30;;;14.60;1.00;;;;;;5085805;28;20556;-80
2023/10/21 05:17:48;;;;;;;13.70;13.40;;;14.60;1.00;;;;;;5089152;28;21005;-79
2023/10/21 05:20:17;;;;;;;13.80;13.50;;;14.50;1.00;;;;;;5093406;28;20528;-79
2023/10/21 05:22:48;;;;;;;13.80;13.50;;;14.60;1.00;;;;;;5085873;28;20491;-79
2023/10/21 05:25:16;;;;;;;13.70;13.40;;;14.60;1.00;;;;;;5086806;28;21095;-80
2023/10/21 05:27:45;;;;;;;13.60;13.30;;;14.60;1.00;;;;;;5092569;28;21013;-80
2023/10/21 05:30:14;;;;;;;13.67;13.37;;;14.60;1.00;;;;;;5091140;28;21031;-80
2023/10/21 05:32:42;;;;;;;13.70;13.40;;;14.60;1.00;;;;;;5081549;28;20481;-81
2023/10/21 05:35:10;;;;;;;13.73;13.43;;;14.60;1.00;;;;;;5090289;28;20469;-81
2023/10/21 05:37:38;;;;;;;14.20;13.90;;;14.60;1.00;;;;;;5088240;28;20588;-80
2023/10/21 05:40:09;;;;;;;14.20;13.90;;;14.60;1.00;;;;;;5093244;28;20465;-80
2023/10/21 05:42:38;;;;;;;14.00;13.70;;;14.50;1.00;;;;;;5091188;28;20466;-79
2023/10/21 05:45:08;;;;;;;14.00;13.60;;;14.50;1.00;;;;;;5084203;28;20516;-79
2023/10/21 05:47:37;;;;;;;13.83;13.53;;;14.50;1.00;;;;;;5097754;28;20442;-78
2023/10/21 05:50:06;;;;;;;14.17;13.87;;;14.50;1.00;;;;;;5087361;28;20784;-80
2023/10/21 05:52:34;;;;;;;14.07;13.70;;;14.50;1.00;;;;;;5090706;28;20465;-79
2023/10/21 05:55:04;;;;;;;13.90;13.60;;;14.50;1.00;;;;;;5092462;28;20478;-79
2023/10/21 05:57:34;;;;;;;14.07;13.77;;;14.50;1.00;;;;;;5092523;28;20453;-80
2023/10/21 06:00:02;;;;;;;13.97;13.67;;;14.50;1.00;;;;;;5096368;28;20465;-79
2023/10/21 06:02:30;;;;;;;14.00;13.57;;;14.50;1.00;;;;;;5095126;28;20454;-79
2023/10/21 06:04:59;;;;;;;14.20;13.80;;;14.50;1.00;;;;;;5090557;28;20483;-78
2023/10/21 06:07:27;;;;;;;13.90;13.53;;;14.50;1.00;;;;;;5087082;28;20450;-79
2023/10/21 06:09:55;;;;;;;14.10;13.80;;;14.50;1.00;;;;;;5095699;28;20465;-77
2023/10/21 06:12:23;;;;;;;14.00;13.70;;;14.50;1.00;;;;;;5089447;28;20571;-79
2023/10/21 06:14:53;;;;;;;14.20;13.90;;;14.50;1.00;;;;;;5090100;27;20477;-80
2023/10/21 06:17:21;;;;;;;14.27;13.97;;;14.50;1.00;;;;;;5094273;28;20463;-79
2023/10/21 06:19:49;;;;;;;13.70;13.40;;;14.50;1.00;;;;;;5092574;28;20454;-79
2023/10/21 06:22:18;;;;;;;14.57;14.17;;;14.50;1.00;;;;;;5089726;28;21101;-79
2023/10/21 06:24:47;;;;;;;14.00;13.70;;;14.50;99.90;;;;;;5088796;28;20498;-80
2023/10/21 06:27:15;;;;;;;13.50;13.20;;;14.50;1.00;;;;;;5094839;28;20461;-79
2023/10/21 06:29:43;;;;;;;13.63;13.33;;;14.50;99.90;;;;;;5091430;28;20445;-80
2023/10/21 06:32:12;;;;;;;14.10;13.70;;;14.50;99.90;;;;;;5093844;28;20450;-80
2023/10/21 06:34:41;;;;;;;13.70;13.40;;;14.50;99.90;;;;;;5094442;28;20474;-80
2023/10/21 06:37:09;;;;;;;14.10;13.70;;;14.60;99.90;;;;;;5096790;28;20533;-79
2023/10/21 06:39:37;;;;;;;14.20;13.90;;;14.60;99.90;;;;;;5087013;28;20445;-80
2023/10/21 06:42:06;;;;;;;14.00;13.70;;;14.60;99.90;;;;;;5088325;28;20449;-79
2023/10/21 06:44:36;;;;;;;14.10;13.80;;;14.60;99.90;;;;;;5093089;28;20603;-79
2023/10/21 06:47:05;;;;;;;13.70;13.40;;;14.60;99.90;;;;;;5088681;27;20445;-79
2023/10/21 06:49:34;;;;;;;13.70;13.40;;;14.60;99.90;;;;;;5087363;28;20454;-79
2023/10/21 06:52:02;;;;;;;13.60;13.30;;;14.60;99.90;;;;;;5086935;28;20446;-79
2023/10/21 06:54:31;;;;;;;13.90;13.60;;;14.60;99.90;;;;;;5090119;28;20488;-79
2023/10/21 06:56:59;;;;;;;13.90;13.50;;;14.60;99.90;;;;;;5089600;28;20530;-79
2023/10/21 06:59:27;;;;;;;13.77;13.47;;;14.60;99.90;;;;;;5094174;28;20449;-78
2023/10/21 07:01:55;;;;;;;13.83;13.53;;;14.60;99.90;;;;;;5091615;28;20450;-80
2023/10/21 07:04:24;;;;;;;13.67;13.37;;;14.70;99.90;;;;;;5089158;28;20484;-79
2023/10/21 07:06:53;;;;;;;13.77;13.40;;;14.70;99.90;;;;;;5090010;28;20477;-80
2023/10/21 07:09:21;;;;;;;14.10;13.70;;;14.70;59.60;;;;;;5089196;28;20447;-80
2023/10/21 07:11:49;;;;;;;13.97;13.67;;;14.70;62.90;;;;;;5090163;28;20457;-79
2023/10/21 07:14:18;;;;;;;14.67;14.17;;;14.70;82.60;;;;;;5089625;28;20469;-79
2023/10/21 07:16:46;;;;;;;13.80;13.50;;;14.80;36.50;;;;;;5093351;28;20454;-79
2023/10/21 07:19:14;;;;;;;13.40;13.10;;;14.80;28.80;;;;;;5090882;28;20454;-80
2023/10/21 07:21:43;;;;;;;13.60;13.30;;;14.80;9.20;;;;;;5091533;28;20454;-79
2023/10/21 07:24:12;;;;;;;13.77;13.47;;;14.80;1.00;;;;;;5096065;28;20477;-79
2023/10/21 07:26:40;;;;;;;13.60;13.30;;;15.00;1.00;;;;;;5094554;28;20465;-79
2023/10/21 07:29:09;;;;;;;13.73;13.43;;;15.20;1.00;;;;;;5093987;28;20580;-78
2023/10/21 07:31:38;;;;;;;13.73;13.43;;;15.30;1.00;;;;;;5090684;28;20521;-80
2023/10/21 07:34:06;;;;;;;13.90;13.50;;;15.60;1.00;;;;;;5094952;28;21024;-79
2023/10/21 07:36:35;;;;;;;13.60;13.30;;;15.80;1.00;;;;;;5090200;28;20468;-79
2023/10/21 07:39:04;;;;;;;13.40;13.10;;;16.00;1.00;;;;;;5091521;28;20451;-81
2023/10/21 07:41:34;;;;;;;13.40;13.10;;;16.20;1.00;;;;;;5092697;28;20517;-80
2023/10/21 07:44:03;;;;;;;14.27;13.77;;;16.50;1.00;;;;;;5090745;28;20472;-79
2023/10/21 07:46:33;;;;;;;13.63;13.33;;;16.60;99.90;;;;;;5090857;28;20464;-79
2023/10/21 07:49:03;;;;;;;13.60;13.30;;;16.80;99.90;;;;;;5091933;28;20473;-80
2023/10/21 07:51:32;;;;;;;14.37;13.97;;;16.90;99.90;;;;;;5094013;28;20453;-80
2023/10/21 07:54:00;;;;;;;13.73;13.43;;;17.10;99.90;;;;;;5089477;28;20489;-79
2023/10/21 07:56:29;;;;;;;13.87;13.47;;;17.20;99.90;;;;;;5093749;28;20580;-79
2023/10/21 07:58:58;;;;;;;13.57;13.27;;;17.50;99.90;;;;;;5094460;28;20549;-79
2023/10/21 08:01:27;;;;;;;13.90;13.60;;;17.80;99.90;;;;;;5093421;28;20505;-80
2023/10/21 08:03:55;;;;;;;13.80;13.50;;;18.00;99.90;;;;;;5095035;28;20530;-80
2023/10/21 08:06:23;;;;;;;14.17;13.87;;;18.30;99.90;;;;;;5086536;28;20469;-80
2023/10/21 08:08:52;;;;;;;14.00;13.70;;;18.60;99.90;;;;;;5091600;28;20442;-79
2023/10/21 08:11:20;;;;;;;13.50;13.20;;;18.80;99.90;;;;;;5096909;28;20488;-81
2023/10/21 08:13:49;;;;;;;13.40;13.10;;;19.30;99.90;;;;;;5091388;28;20484;-80
2023/10/21 08:16:20;;;;;;;14.10;13.60;;;19.70;99.90;;;;;;5086680;28;20863;-80
2023/10/21 08:18:48;;;;;;;13.43;13.13;;;20.00;99.90;;;;;;5095387;28;20449;-81
2023/10/21 08:21:18;;;;;;;13.20;12.90;;;20.20;99.90;;;;;;5097955;28;20461;-81
2023/10/21 08:23:46;;;;;;;13.40;13.10;;;20.50;99.90;;;;;;5091061;28;20457;-80
2023/10/21 08:26:15;;;;;;;13.33;13.03;;;20.90;99.90;;;;;;5085582;28;20527;-81
2023/10/21 08:28:43;;;;;;;13.20;12.90;;;21.50;99.90;;;;;;5093952;28;20451;-80
2023/10/21 08:31:11;;;;;;;14.00;13.70;;;21.70;99.90;;;;;;5092653;28;21261;-80
2023/10/21 08:33:41;;;;;;;13.47;13.10;;;22.00;99.90;;;;;;5089651;28;20509;-81
2023/10/21 08:36:17;;;;;;;13.27;13.00;;;22.50;99.90;;;;;;5092704;28;20489;-79
2023/10/21 08:38:45;;;;;;;13.30;13.00;;;22.70;99.90;;;;;;5097331;28;20449;-81
2023/10/21 08:41:14;;;;;;;13.17;12.80;;;23.10;99.90;;;;;;5103150;28;20549;-82
2023/10/21 08:43:46;;;;;;;13.67;13.27;;;23.30;99.90;;;;;;5101759;28;20464;-81
2023/10/21 08:46:16;;;;;;;13.57;13.17;;;23.00;99.90;;;;;;5097513;27;20524;-81
2023/10/21 08:48:47;;;;;;;12.90;12.70;;;22.70;99.90;;;;;;5100599;28;20469;-81
2023/10/21 08:51:20;;;;;;;13.13;12.87;;;21.90;99.90;;;;;;5093952;28;20457;-80
2023/10/21 08:53:55;;;;;;;12.70;12.50;;;21.20;99.90;;;;;;5098012;28;20482;-81
2023/10/21 08:56:24;;;;;;;12.60;12.30;;;20.90;99.90;;;;;;5091569;27;20993;-81
2023/10/21 08:58:54;;;;;;;12.20;12.00;;;20.40;99.90;;;;;;5089694;28;20448;-82
2023/10/21 09:01:22;;;;;;;12.47;12.27;;;20.00;99.90;;;;;;5093929;28;20445;-81
2023/10/21 09:03:52;;;;;;;12.50;12.20;;;19.70;99.90;;;;;;5093115;28;20484;-80
2023/10/21 09:06:21;;;;;;;12.70;12.30;;;19.60;99.90;;;;;;5089799;28;20884;-82
2023/10/21 09:08:50;;;;;;;12.33;12.10;;;19.80;99.90;;;;;;5088488;28;20458;-82
2023/10/21 09:11:20;;;;;;;12.30;12.00;;;20.00;99.90;;;;;;5090543;28;20861;-82
2023/10/21 09:13:52;;;;;;;12.17;11.90;;;19.80;99.90;;;;;;5086922;28;20480;-82
2023/10/21 09:16:23;;;;;;;27.60;25.43;;;20.20;99.90;;;;;;5094233;28;20515;-82
2023/10/21 09:19:02;;;;;;;11.97;11.73;;;20.60;99.90;;;;;;5094432;28;20460;-82
2023/10/21 09:21:32;;;;;;;12.27;12.00;;;21.40;99.90;;;;;;5092718;28;20463;-81
2023/10/21 09:24:01;;;;;;;12.30;12.00;;;22.40;99.90;;;;;;5093306;28;20504;-81
2023/10/21 09:26:37;;;;;;;12.73;12.47;;;23.50;99.90;;;;;;5094903;28;20474;-80
2023/10/21 09:29:08;;;;;;;12.40;12.20;;;24.20;99.90;;;;;;5078944;28;20539;-82
2023/10/21 09:31:51;;;;;;;12.23;11.93;;;24.10;99.90;;;;;;5090902;28;20437;-79
2023/10/21 09:34:26;;;;;;;11.70;11.50;;;24.70;99.90;;;;;;5091302;28;20865;-81
2023/10/21 09:36:55;;;;;;;11.50;11.30;;;24.40;99.90;;;;;;5092932;28;20462;-81
2023/10/21 09:39:26;;;;;;;11.03;10.83;;;24.70;99.90;;;;;;5087404;28;20447;-83
2023/10/21 09:41:54;;;;;;;12.30;11.60;;;24.80;99.90;;;;;;5094399;28;20449;-82
2023/10/21 09:44:23;;;;;;;11.00;10.63;;;24.40;99.90;;;;;;5091048;28;20479;-82
2023/10/21 09:46:54;;;;;;;10.90;10.70;;;24.40;99.90;;;;;;5091136;28;20844;-82
2023/10/21 09:49:27;;;;;;;11.30;10.80;;;25.20;99.90;;;;;;5094183;28;20449;-80
2023/10/21 09:52:04;;;;;;;11.70;11.30;;;25.70;99.90;;;;;;5093854;28;20470;-83
2023/10/21 09:54:41;;;;;;;11.30;10.90;;;26.10;99.90;;;;;;5097103;28;20472;-83
2023/10/21 09:57:11;;;;;;;10.47;10.20;;;25.10;99.90;;;;;;5092343;28;20454;-83
2023/10/21 09:59:40;;;;;;;11.00;10.70;;;24.70;99.90;;;;;;5093448;28;20454;-80
2023/10/21 10:02:13;;;;;;;11.00;10.50;;;24.30;99.90;;;;;;5092222;28;20975;-81
2023/10/21 10:04:43;;;;;;;10.60;10.30;;;24.50;99.90;;;;;;5094114;28;21315;-81
2023/10/21 10:07:12;;;;;;;10.80;10.50;;;25.80;99.90;;;;;;5090484;28;20469;-82
2023/10/21 10:09:57;;;;;;;11.50;11.10;;;27.30;99.90;;;;;;5092441;28;20454;-82
2023/10/21 10:12:30;;;;;;;9.87;9.67;;;26.40;99.90;;;;;;5094022;28;20453;-80
2023/10/21 10:15:00;;;;;;;9.80;9.60;;;25.80;99.90;;;;;;5085418;28;20473;-80
2023/10/21 10:17:48;;;;;;;9.10;8.80;;;24.90;99.90;;;;;;5090614;28;20461;-81
2023/10/21 10:20:24;;;;;;;13.07;12.37;;;24.70;99.90;;;;;;5089498;28;20512;-81
2023/10/21 10:23:04;;;;;;;10.53;9.93;;;25.90;99.90;;;;;;5091635;28;20459;-80
2023/10/21 10:25:34;;;;;;;9.47;9.27;;;26.40;99.90;;;;;;5087167;28;20451;-80
2023/10/21 10:28:07;;;;;;;9.10;9.00;;;27.90;99.90;;;;;;5092276;28;20588;-81
2023/10/21 10:30:38;;;;;;;8.33;8.13;;;29.20;99.90;;;;;;5090046;28;20448;-80
2023/10/21 10:33:08;;;;;;;6.43;6.33;;;29.90;99.90;;;;;;5092029;28;21433;-83
2023/10/21 10:35:41;;;;;;;6.67;6.47;;;29.60;99.90;;;;;;5092873;28;20483;-82
2023/10/21 10:38:24;;;;;;;6.30;6.20;;;28.70;99.90;;;;;;5095065;28;20491;-81
2023/10/21 10:40:59;;;;;;;5.83;5.70;;;30.40;99.90;;;;;;5091923;27;20483;-80
2023/10/21 10:43:28;;;;;;;6.70;6.50;;;29.10;99.90;;;;;;5090091;28;20491;-82
2023/10/21 10:45:57;;;;;;;5.73;5.57;;;27.30;99.90;;;;;;5093857;28;20449;-82
2023/10/21 10:48:25;;;;;;;5.33;5.20;;;25.20;99.90;;;;;;5093451;28;20469;-79
2023/10/21 10:51:00;;;;;;;6.10;5.80;;;23.50;97.20;;;;;;5091430;28;20444;-80
2023/10/21 10:53:29;;;;;;;5.73;5.53;;;23.10;95.70;;;;;;5092309;28;20464;-82
2023/10/21 10:55:57;;;;;;;5.70;5.50;;;22.40;91.60;;;;;;5087596;28;20438;-81
2023/10/21 10:58:27;;;;;;;5.43;5.17;;;22.00;89.50;;;;;;5085947;28;20738;-80
2023/10/21 11:00:56;;;;;;;6.50;6.13;;;21.70;86.00;;;;;;5086879;28;20457;-81
2023/10/21 11:03:27;;;;;;;5.60;5.50;;;21.40;82.40;;;;;;5083614;28;20484;-81
2023/10/21 11:05:59;;;;;;;6.40;6.20;;;20.80;75.60;;;;;;5088853;28;20494;-81
2023/10/21 11:08:30;;;;;;;5.70;5.60;;;20.90;79.10;;;;;;5087104;28;20564;-81
2023/10/21 11:11:05;;;;;;;7.70;7.40;;;21.80;91.30;;;;;;5093114;28;20549;-81
2023/10/21 11:13:33;;;;;;;5.53;5.33;;;21.90;91.70;;;;;;5094073;28;20465;-81
2023/10/21 11:16:04;;;;;;;5.93;5.70;;;22.00;92.70;;;;;;5094929;28;20442;-82
2023/10/21 11:18:34;;;;;;;5.20;5.10;;;21.80;91.00;;;;;;5091958;28;20544;-80
2023/10/21 11:21:04;;;;;;;5.30;5.20;;;21.20;83.50;;;;;;5092317;28;20462;-81
2023/10/21 11:23:33;;;;;;;5.40;5.30;;;20.80;78.60;;;;;;5092931;28;20469;-81
2023/10/21 11:26:07;;;;;;;5.37;5.27;;;20.10;72.20;;;;;;5088193;28;20459;-81
2023/10/21 11:28:38;;;;;;;5.47;5.30;;;19.80;69.30;;;;;;5094130;28;20568;-80
2023/10/21 11:31:08;;;;;;;5.80;5.60;;;19.60;68.50;;;;;;5092581;28;20458;-80
2023/10/21 11:33:36;;;;;;;5.57;5.30;;;19.40;66.90;;;;;;5091427;28;20469;-81
2023/10/21 11:36:08;;;;;;;5.23;5.13;;;19.20;65.50;;;;;;5090900;28;21060;-82
2023/10/21 11:38:37;;;;;;;4.90;4.80;;;19.00;66.10;;;;;;5090233;28;20453;-82
2023/10/21 11:41:12;;;;;;;5.38;5.20;;;18.90;65.80;;;;;;5087737;28;22062;-82
2023/10/21 11:43:45;;;;;;;5.20;5.00;;;19.00;69.30;;;;;;5083589;27;20559;-82
2023/10/21 11:46:13;;;;;;;5.40;5.20;;;19.00;71.50;;;;;;5088763;28;20196;-82
2023/10/21 11:48:42;;;;;;;6.03;5.83;;;19.20;74.60;;;;;;5090282;28;20491;-83
2023/10/21 11:51:11;;;;;;;5.37;5.27;;;19.40;78.40;;;;;;5086446;28;20503;-82
2023/10/21 11:53:40;;;;;;;6.13;5.93;;;19.70;83.30;;;;;;5088970;28;20474;-84
2023/10/21 12:08:11;;;;;;;9.67;6.07;;;19.80;87.60;;;;;;5072094;28;20474;-82
2023/10/21 12:10:46;;;;;;;6.17;5.97;;;19.60;84.80;;;;;;5081725;28;20458;-84
2023/10/21 12:13:38;;;;;;;5.90;5.70;;;19.70;88.10;;;;;;5086368;27;20466;-83
2023/10/21 12:24:59;;;;;;;5.70;5.60;;;19.60;83.80;;;;;;5093886;28;20939;-84
2023/10/21 12:38:40;;;;;;;5.97;5.80;;;19.50;83.70;;;;;;5067327;28;20461;-83
2023/10/21 12:41:25;;;;;;;5.93;5.83;;;19.40;79.90;;;;;;5097123;28;20449;-82
2023/10/21 12:43:55;;;;;;;6.10;5.87;;;18.90;73.00;;;;;;5095196;28;21646;-82
2023/10/21 12:46:25;;;;;;;5.70;5.50;;;18.90;74.40;;;;;;5090561;28;20473;-82
2023/10/21 12:48:54;;;;;;;6.73;6.53;;;18.70;69.90;;;;;;5092458;28;20466;-83
2023/10/21 12:51:30;;;;;;;7.30;6.90;;;18.70;72.20;;;;;;5093277;28;20463;-82
2023/10/21 12:53:59;;;;;;;6.50;6.20;;;18.60;71.00;;;;;;5091251;28;20500;-82
2023/10/21 12:56:42;;;;;;;5.80;5.70;;;18.40;72.10;;;;;;5089729;28;20376;-83
2023/10/21 12:59:10;;;;;;;6.03;5.83;;;18.60;76.20;;;;;;5092549;28;20457;-83
2023/10/21 13:01:39;;;;;;;6.50;6.30;;;18.90;79.00;;;;;;5091206;28;20462;-82
2023/10/21 13:04:09;;;;;;;7.27;6.70;;;19.00;79.70;;;;;;5093054;28;21133;-81
2023/10/21 13:06:38;;;;;;;6.77;6.67;;;19.10;81.90;;;;;;5093631;28;20442;-80
2023/10/21 13:09:20;;;;;;;6.30;6.20;;;19.10;80.70;;;;;;5094164;28;20551;-82
2023/10/21 13:11:52;;;;;;;6.43;6.33;;;19.20;84.80;;;;;;5091478;28;20450;-82
2023/10/21 13:14:23;;;;;;;5.90;5.80;;;19.20;80.40;;;;;;5094272;28;20874;-81
2023/10/21 13:16:53;;;;;;;6.00;5.90;;;19.20;79.40;;;;;;5092592;28;20540;-81